Time;durP1;ratioP1;P1;durP2;ratioP2;P2;SDS_P1;SDS_P2;PMS_P1;PMS_P2;Temp;Humidity;BMP_temperature;BMP_pressure;BME280_temperature;BME280_humidity;BME280_pressure;Samples;Min_cycle;Max_cycle;Signal;HPM_P1;HPM_P2
2024/02/08 00:00:21;;;;;;;15.43;5.20;;;3.80;99.90;;;;;;5034357;28;20043;-79
2024/02/08 00:02:48;;;;;;;12.67;5.00;;;3.90;99.90;;;;;;5033412;28;20466;-79
2024/02/08 00:05:14;;;;;;;14.80;4.63;;;3.90;99.90;;;;;;5034687;28;20025;-79
2024/02/08 00:07:40;;;;;;;14.33;5.73;;;3.90;99.90;;;;;;5034444;28;20079;-79
2024/02/08 00:10:08;;;;;;;13.43;4.03;;;3.90;99.90;;;;;;5034296;28;20025;-79
2024/02/08 00:12:37;;;;;;;14.70;4.67;;;3.90;99.90;;;;;;5034812;28;20018;-79
2024/02/08 00:15:04;;;;;;;15.20;5.33;;;3.90;99.90;;;;;;5033318;28;20021;-79
2024/02/08 00:17:30;;;;;;;15.53;5.13;;;3.90;99.90;;;;;;5034328;28;20025;-79
2024/02/08 00:19:56;;;;;;;11.17;4.60;;;3.90;99.90;;;;;;5034264;28;20033;-79
2024/02/08 00:22:21;;;;;;;13.87;4.37;;;3.90;99.90;;;;;;5032734;28;20024;-79
2024/02/08 00:24:47;;;;;;;16.70;5.03;;;3.90;99.90;;;;;;5034107;28;20078;-79
2024/02/08 00:27:13;;;;;;;13.43;5.27;;;3.90;99.90;;;;;;5034235;28;20026;-79
2024/02/08 00:29:41;;;;;;;13.60;4.73;;;3.90;99.90;;;;;;5034118;28;20036;-79
2024/02/08 00:32:08;;;;;;;13.87;5.20;;;3.90;99.90;;;;;;5034129;28;20025;-79
2024/02/08 00:34:33;;;;;;;15.17;5.27;;;3.90;99.90;;;;;;5032419;28;20108;-78
2024/02/08 00:36:59;;;;;;;17.03;5.03;;;3.90;99.90;;;;;;5033888;28;20100;-79
2024/02/08 00:39:25;;;;;;;14.57;4.53;;;3.90;99.90;;;;;;5033536;28;20035;-79
2024/02/08 00:41:51;;;;;;;13.83;5.40;;;3.90;99.90;;;;;;5033860;28;20024;-79
2024/02/08 00:44:18;;;;;;;12.87;4.97;;;3.90;99.90;;;;;;5032040;28;20030;-79
2024/02/08 00:46:44;;;;;;;18.37;5.53;;;4.00;99.90;;;;;;5033238;28;20036;-79
2024/02/08 00:49:10;;;;;;;12.47;4.60;;;3.90;99.90;;;;;;5033713;28;20030;-79
2024/02/08 00:51:36;;;;;;;11.53;4.77;;;4.00;99.90;;;;;;5032351;28;20025;-79
2024/02/08 00:54:02;;;;;;;12.20;4.33;;;3.90;99.90;;;;;;5032998;28;20454;-78
2024/02/08 00:56:28;;;;;;;14.13;4.60;;;3.90;99.90;;;;;;5033703;28;20123;-79
2024/02/08 00:58:54;;;;;;;11.40;4.63;;;3.90;99.90;;;;;;5033224;28;20065;-78
2024/02/08 01:01:19;;;;;;;12.70;4.10;;;3.90;99.90;;;;;;5033463;28;20068;-79
2024/02/08 01:03:45;;;;;;;13.27;4.20;;;4.00;99.90;;;;;;5034019;28;20099;-79
2024/02/08 01:06:12;;;;;;;15.83;3.70;;;3.90;99.90;;;;;;5033748;28;20026;-79
2024/02/08 01:08:38;;;;;;;12.53;3.77;;;3.90;99.90;;;;;;5031682;28;20017;-79
2024/02/08 01:11:04;;;;;;;12.77;3.53;;;3.90;99.90;;;;;;5033508;28;20152;-79
2024/02/08 01:13:31;;;;;;;14.87;3.90;;;3.90;99.90;;;;;;5033198;28;20406;-79
2024/02/08 01:15:58;;;;;;;11.87;3.23;;;4.00;99.90;;;;;;5033398;28;20021;-79
2024/02/08 01:18:24;;;;;;;11.23;3.70;;;3.90;99.90;;;;;;5033266;28;20072;-79
2024/02/08 01:20:50;;;;;;;12.77;2.90;;;3.90;99.90;;;;;;5032113;28;20382;-79
2024/02/08 01:23:17;;;;;;;10.77;2.63;;;3.90;99.90;;;;;;5032721;28;20428;-79
2024/02/08 01:25:44;;;;;;;9.40;2.53;;;3.80;99.90;;;;;;5033460;28;20079;-79
2024/02/08 01:28:09;;;;;;;14.00;3.00;;;4.00;99.90;;;;;;5033026;28;20028;-79
2024/02/08 01:30:35;;;;;;;11.97;3.60;;;3.90;99.90;;;;;;5031836;28;20105;-78
2024/02/08 01:33:06;;;;;;;12.63;3.03;;;3.90;99.90;;;;;;5033354;28;20029;-79
2024/02/08 01:35:32;;;;;;;12.23;3.87;;;3.90;99.90;;;;;;5032973;28;20025;-79
2024/02/08 01:37:59;;;;;;;14.13;3.73;;;3.90;99.90;;;;;;5032695;28;20033;-79
2024/02/08 01:40:26;;;;;;;14.10;4.13;;;4.00;99.90;;;;;;5032927;28;20033;-79
2024/02/08 01:42:57;;;;;;;11.37;4.07;;;4.00;99.90;;;;;;5032979;28;20053;-79
2024/02/08 01:45:30;;;;;;;14.70;3.97;;;4.00;99.90;;;;;;5031779;28;20025;-79
2024/02/08 01:48:10;;;;;;;10.57;3.47;;;4.00;99.90;;;;;;5032324;28;20818;-79
2024/02/08 01:50:38;;;;;;;11.43;3.33;;;4.00;99.90;;;;;;5031425;28;20057;-79
2024/02/08 01:53:07;;;;;;;14.40;3.80;;;4.00;99.90;;;;;;5031137;28;20053;-79
2024/02/08 01:55:33;;;;;;;12.73;3.83;;;3.90;99.90;;;;;;5032824;28;20036;-79
2024/02/08 01:58:04;;;;;;;14.07;3.33;;;4.10;99.90;;;;;;5032794;28;20026;-79
2024/02/08 02:00:35;;;;;;;10.73;3.20;;;4.00;99.90;;;;;;5031375;28;20117;-79
2024/02/08 02:03:01;;;;;;;11.43;3.50;;;4.00;99.90;;;;;;5032802;28;20501;-79
2024/02/08 02:05:28;;;;;;;12.73;3.33;;;4.00;99.90;;;;;;5034735;28;20028;-79
2024/02/08 02:07:54;;;;;;;15.33;3.63;;;4.00;99.90;;;;;;5035463;28;20025;-79
2024/02/08 02:10:20;;;;;;;10.73;2.73;;;4.00;99.90;;;;;;5036558;28;20033;-79
2024/02/08 02:12:48;;;;;;;8.77;2.87;;;4.00;99.90;;;;;;5036595;28;20512;-78
2024/02/08 02:15:15;;;;;;;12.37;2.87;;;4.00;99.90;;;;;;5036629;28;20032;-79
2024/02/08 02:17:44;;;;;;;11.03;2.87;;;4.00;99.90;;;;;;5035444;28;20478;-79
2024/02/08 02:20:18;;;;;;;11.53;3.47;;;4.00;99.90;;;;;;5036438;28;20544;-79
2024/02/08 02:22:46;;;;;;;12.45;3.15;;;4.00;99.90;;;;;;5036503;28;20021;-79
2024/02/08 02:25:13;;;;;;;8.23;2.73;;;3.90;99.90;;;;;;5036662;28;20053;-79
2024/02/08 02:27:40;;;;;;;12.87;3.40;;;4.00;99.90;;;;;;5036621;28;20373;-79
2024/02/08 02:30:15;;;;;;;14.17;3.30;;;4.00;99.90;;;;;;5036641;28;20053;-79
2024/02/08 02:32:51;;;;;;;10.70;2.93;;;4.00;99.90;;;;;;5028047;28;20028;-79
2024/02/08 02:35:17;;;;;;;15.77;2.97;;;4.00;99.90;;;;;;5031614;28;20386;-79
2024/02/08 02:37:46;;;;;;;13.30;3.17;;;4.00;99.90;;;;;;5031665;28;20022;-79
2024/02/08 02:40:22;;;;;;;11.93;3.10;;;4.00;99.90;;;;;;5016251;28;20041;-79
2024/02/08 02:42:51;;;;;;;7.63;2.53;;;4.00;99.90;;;;;;5032861;28;20484;-79
2024/02/08 02:45:24;;;;;;;12.70;3.10;;;4.00;99.90;;;;;;5034783;28;20049;-78
2024/02/08 02:47:56;;;;;;;13.57;3.13;;;4.10;99.90;;;;;;5034592;28;20038;-79
2024/02/08 02:50:25;;;;;;;11.13;3.13;;;4.10;99.90;;;;;;5036199;28;20029;-79
2024/02/08 02:52:51;;;;;;;13.03;2.80;;;4.10;99.90;;;;;;5034633;28;20053;-79
2024/02/08 02:55:18;;;;;;;12.67;2.60;;;4.10;99.90;;;;;;5035869;28;20029;-79
2024/02/08 02:57:44;;;;;;;8.63;2.67;;;4.10;99.90;;;;;;5034453;28;20125;-78
2024/02/08 03:00:24;;;;;;;10.13;2.80;;;4.10;99.90;;;;;;5035638;28;20052;-79
2024/02/08 03:02:57;;;;;;;12.87;2.63;;;4.10;99.90;;;;;;5035688;28;20031;-78
2024/02/08 03:05:23;;;;;;;10.43;2.03;;;4.10;99.90;;;;;;5035837;28;20481;-78
2024/02/08 03:07:53;;;;;;;14.57;2.77;;;4.10;99.90;;;;;;5034647;28;20362;-79
2024/02/08 03:10:22;;;;;;;10.37;2.87;;;4.10;99.90;;;;;;5035588;28;20469;-79
2024/02/08 03:12:49;;;;;;;10.87;2.37;;;4.10;99.90;;;;;;5035690;28;20032;-79
2024/02/08 03:15:16;;;;;;;9.43;2.10;;;4.20;99.90;;;;;;5033965;28;20036;-79
2024/02/08 03:17:43;;;;;;;11.27;2.40;;;4.10;99.90;;;;;;5034230;28;20032;-79
2024/02/08 03:20:16;;;;;;;12.30;2.43;;;4.10;99.90;;;;;;5035147;28;20029;-79
2024/02/08 03:22:45;;;;;;;7.80;2.17;;;4.10;99.90;;;;;;5035536;28;20018;-78
2024/02/08 03:25:14;;;;;;;13.43;2.57;;;4.10;99.90;;;;;;5034230;28;20025;-79
2024/02/08 03:27:44;;;;;;;13.90;2.77;;;4.20;99.90;;;;;;5034028;28;20478;-79
2024/02/08 03:30:19;;;;;;;13.30;2.60;;;4.10;99.90;;;;;;5035028;28;20028;-79
2024/02/08 03:32:49;;;;;;;14.47;3.00;;;4.10;99.90;;;;;;5035211;28;20040;-79
2024/02/08 03:35:16;;;;;;;7.33;2.20;;;4.10;99.90;;;;;;5035145;28;20035;-79
2024/02/08 03:37:43;;;;;;;12.07;2.23;;;4.20;99.90;;;;;;5033755;28;20022;-79
2024/02/08 03:40:10;;;;;;;15.80;2.87;;;4.10;99.90;;;;;;5035038;28;20029;-79
2024/02/08 03:42:36;;;;;;;8.83;2.23;;;4.20;99.90;;;;;;5033590;28;20029;-79
2024/02/08 03:45:06;;;;;;;10.97;2.80;;;4.10;99.90;;;;;;5034999;28;20017;-79
2024/02/08 03:47:32;;;;;;;11.87;2.60;;;4.20;99.90;;;;;;5033342;28;20107;-79
2024/02/08 03:49:59;;;;;;;8.87;2.43;;;4.20;99.90;;;;;;5034750;28;20477;-79
2024/02/08 03:52:30;;;;;;;13.20;2.77;;;4.20;99.90;;;;;;5034577;28;20434;-79
2024/02/08 03:54:58;;;;;;;10.10;2.50;;;4.20;99.90;;;;;;5035299;28;20095;-79
2024/02/08 03:57:24;;;;;;;6.80;2.13;;;4.30;99.90;;;;;;5033891;28;20565;-79
2024/02/08 03:59:52;;;;;;;11.07;2.43;;;4.30;99.90;;;;;;5034994;28;20108;-79
2024/02/08 04:02:21;;;;;;;9.63;3.67;;;4.30;99.90;;;;;;5034265;28;20480;-79
2024/02/08 04:04:52;;;;;;;12.70;2.80;;;4.40;99.90;;;;;;5034959;28;20023;-79
2024/02/08 04:53:57;;;;;;;7.57;2.30;;;4.40;99.90;;;;;;5033682;28;20121;-77
2024/02/08 04:56:23;;;;;;;10.83;2.43;;;4.50;99.90;;;;;;5033909;28;20116;-77
2024/02/08 04:58:50;;;;;;;13.10;3.20;;;4.40;99.90;;;;;;5032388;28;20025;-77
2024/02/08 05:01:17;;;;;;;10.03;3.60;;;4.50;99.90;;;;;;5033681;28;20056;-77
2024/02/08 05:03:43;;;;;;;17.10;3.10;;;4.50;99.90;;;;;;5032388;28;20025;-78
2024/02/08 05:06:18;;;;;;;12.70;3.53;;;4.50;99.90;;;;;;5033350;28;20032;-78
2024/02/08 05:08:45;;;;;;;12.57;3.00;;;4.50;99.90;;;;;;5033389;28;20037;-77
2024/02/08 05:11:14;;;;;;;12.00;3.03;;;4.60;99.90;;;;;;5031961;28;20021;-78
2024/02/08 05:13:44;;;;;;;15.63;3.67;;;4.50;99.90;;;;;;5033259;28;20154;-77
2024/02/08 05:16:17;;;;;;;9.17;3.23;;;4.40;99.90;;;;;;5033115;28;20091;-78
2024/02/08 05:18:44;;;;;;;13.23;3.13;;;4.50;99.90;;;;;;5031963;28;20026;-78
2024/02/08 05:21:14;;;;;;;13.80;3.67;;;4.40;99.90;;;;;;5033207;28;20021;-78
2024/02/08 05:23:41;;;;;;;17.30;5.03;;;4.40;99.90;;;;;;5031791;28;20052;-78
2024/02/08 05:26:10;;;;;;;10.40;3.60;;;4.30;99.90;;;;;;5033140;28;20060;-78
2024/02/08 05:28:43;;;;;;;11.07;3.07;;;4.40;99.90;;;;;;5031628;28;20382;-77
2024/02/08 05:31:08;;;;;;;5.72;2.33;;;4.30;99.90;;;;;;5031582;28;20381;-78
2024/02/08 05:33:34;;;;;;;12.50;3.07;;;4.30;99.90;;;;;;5031829;28;20032;-78
2024/02/08 05:36:06;;;;;;;9.10;2.50;;;4.20;99.90;;;;;;5032907;28;20470;-78
2024/02/08 05:38:37;;;;;;;12.63;4.27;;;4.20;99.90;;;;;;5031451;28;20477;-78
2024/02/08 05:41:06;;;;;;;10.10;3.00;;;4.20;99.90;;;;;;5032395;28;20049;-78
2024/02/08 05:43:41;;;;;;;8.53;2.53;;;4.20;99.90;;;;;;5032548;28;20052;-78
2024/02/08 05:46:08;;;;;;;13.23;3.47;;;4.20;99.90;;;;;;5031789;28;20022;-77
2024/02/08 05:48:33;;;;;;;9.97;3.00;;;4.30;99.90;;;;;;5032413;28;20014;-77
2024/02/08 05:51:02;;;;;;;8.90;2.87;;;4.30;99.90;;;;;;5031344;28;20033;-78
2024/02/08 05:53:32;;;;;;;12.57;3.17;;;4.30;99.90;;;;;;5032526;28;20076;-78
2024/02/08 05:55:59;;;;;;;13.90;3.17;;;4.30;99.90;;;;;;5032547;28;20030;-78
2024/02/08 05:58:27;;;;;;;7.97;2.47;;;4.30;99.90;;;;;;5032396;28;20087;-78
2024/02/08 06:00:55;;;;;;;10.37;2.83;;;4.30;99.90;;;;;;5029821;28;20108;-78
2024/02/08 06:03:33;;;;;;;9.93;2.80;;;4.40;99.90;;;;;;5030018;28;20021;-77
2024/02/08 06:06:16;;;;;;;11.50;2.80;;;4.30;99.90;;;;;;5033198;28;20017;-78
2024/02/08 06:08:42;;;;;;;17.20;2.97;;;4.30;99.90;;;;;;5032948;28;20028;-78
2024/02/08 06:11:19;;;;;;;11.53;2.80;;;4.30;99.90;;;;;;5031254;28;20029;-78
2024/02/08 06:13:52;;;;;;;13.67;2.93;;;4.30;99.90;;;;;;5031321;28;20045;-78
2024/02/08 06:16:26;;;;;;;15.02;3.50;;;4.40;99.90;;;;;;5032667;28;20092;-78
2024/02/08 06:19:02;;;;;;;11.40;3.15;;;4.40;99.90;;;;;;5031548;28;20033;-78
2024/02/08 06:21:40;;;;;;;15.97;2.93;;;4.40;99.90;;;;;;5032941;28;20493;-78
2024/02/08 06:27:02;;;;;;;17.10;3.07;;;4.40;99.90;;;;;;5032500;28;20113;-78
2024/02/08 06:29:47;;;;;;;13.33;2.60;;;4.40;99.90;;;;;;5032537;28;20493;-79
2024/02/08 06:32:23;;;;;;;7.37;2.27;;;4.40;99.90;;;;;;5032570;28;20029;-78
2024/02/08 06:35:07;;;;;;;11.90;2.83;;;4.40;99.90;;;;;;5032576;28;20018;-79
2024/02/08 06:37:44;;;;;;;13.17;3.17;;;4.40;99.90;;;;;;5032944;28;20041;-78
2024/02/08 06:40:37;;;;;;;13.30;3.30;;;4.50;99.90;;;;;;5029420;28;20026;-79
2024/02/08 07:37:36;;;;;;;19.83;7.95;;;4.70;99.90;;;;;;5035402;28;20409;-82
2024/02/08 07:40:23;;;;;;;13.20;6.00;;;4.70;99.90;;;;;;5035147;28;20612;-82
2024/02/08 07:43:34;;;;;;;18.20;7.30;;;4.80;99.90;;;;;;5034668;28;20044;-82
2024/02/08 07:45:54;;;;;;;16.20;5.67;;;4.80;99.90;;;;;;5034618;28;20524;-82
2024/02/08 07:48:39;;;;;;;17.47;5.43;;;4.80;99.90;;;;;;5034874;28;20021;-82
2024/02/08 07:51:05;;;;;;;17.87;6.40;;;4.80;99.90;;;;;;5035037;28;20036;-82
2024/02/08 07:59:03;;;;;;;17.63;7.00;;;4.80;99.90;;;;;;5035290;28;20039;-83
2024/02/08 08:01:32;;;;;;;23.53;7.50;;;4.80;99.90;;;;;;5034886;28;20147;-84
2024/02/08 08:04:08;;;;;;;18.23;6.30;;;4.80;99.90;;;;;;5033978;28;20017;-85
2024/02/08 08:06:50;;;;;;;17.30;7.43;;;4.90;99.90;;;;;;5034772;28;20029;-85
2024/02/08 08:09:21;;;;;;;13.00;6.10;;;4.90;99.90;;;;;;5033192;28;20030;-85
2024/02/08 08:11:57;;;;;;;21.87;6.60;;;5.00;99.90;;;;;;5034753;28;20017;-85
2024/02/08 08:19:44;;;;;;;14.93;6.27;;;5.00;99.90;;;;;;5034620;28;20053;-84
2024/02/08 08:25:11;;;;;;;19.00;6.90;;;5.00;99.90;;;;;;5034545;28;20032;-84
2024/02/08 08:30:27;;;;;;;16.60;5.77;;;5.10;99.90;;;;;;5034161;28;20159;-84
2024/02/08 08:38:28;;;;;;;16.60;6.17;;;5.20;99.90;;;;;;5034131;28;20049;-84
2024/02/08 08:41:06;;;;;;;13.13;6.13;;;5.20;99.90;;;;;;5034085;28;20022;-84
2024/02/08 08:43:34;;;;;;;16.03;5.30;;;5.30;99.90;;;;;;5034021;28;20433;-84
2024/02/08 08:46:00;;;;;;;14.37;6.00;;;5.30;99.90;;;;;;5034109;28;20469;-84
2024/02/08 08:48:33;;;;;;;14.03;6.07;;;5.30;99.90;;;;;;5033510;28;20053;-84
2024/02/08 08:51:10;;;;;;;20.13;6.40;;;5.30;99.90;;;;;;5033913;28;20482;-84
2024/02/08 08:53:43;;;;;;;16.03;7.00;;;5.40;99.90;;;;;;5034004;28;20049;-84
2024/02/08 08:56:13;;;;;;;10.50;4.63;;;5.40;99.90;;;;;;5033855;28;20017;-84
2024/02/08 08:58:41;;;;;;;13.10;5.97;;;5.40;99.90;;;;;;5032546;28;20491;-85
2024/02/08 09:01:18;;;;;;;13.97;5.77;;;5.40;99.90;;;;;;5033859;28;20068;-85
2024/02/08 09:03:44;;;;;;;20.40;6.67;;;5.50;99.90;;;;;;5032704;28;20026;-84
2024/02/08 09:06:14;;;;;;;16.70;6.13;;;5.40;99.90;;;;;;5033539;28;20025;-84
2024/02/08 09:08:45;;;;;;;18.20;6.60;;;5.40;99.90;;;;;;5032605;28;20029;-85
2024/02/08 09:11:13;;;;;;;18.90;5.83;;;5.40;99.90;;;;;;5032297;28;20492;-84
2024/02/08 09:13:51;;;;;;;21.93;6.13;;;5.40;99.90;;;;;;5033304;28;20021;-84
2024/02/08 09:21:31;;;;;;;17.00;6.60;;;5.40;99.90;;;;;;5033681;28;20124;-84
2024/02/08 09:23:59;;;;;;;14.75;5.35;;;5.50;99.90;;;;;;5029772;28;20371;-84
2024/02/08 09:26:25;;;;;;;15.97;5.10;;;5.50;99.90;;;;;;5033484;28;20052;-84
2024/02/08 09:28:51;;;;;;;22.43;5.80;;;5.50;99.90;;;;;;5032065;28;20025;-84
2024/02/08 09:31:17;;;;;;;20.20;6.57;;;5.50;99.90;;;;;;5033211;28;20030;-84
2024/02/08 09:34:00;;;;;;;15.90;5.63;;;5.50;99.90;;;;;;5031779;28;20430;-83
2024/02/08 09:36:29;;;;;;;17.40;5.53;;;5.60;99.90;;;;;;5031991;28;20493;-83
2024/02/08 09:38:56;;;;;;;15.53;5.57;;;5.60;99.90;;;;;;5032827;28;20536;-84
2024/02/08 09:41:25;;;;;;;15.83;5.57;;;5.60;99.90;;;;;;5032996;28;20033;-84
2024/02/08 09:43:58;;;;;;;14.40;5.60;;;5.60;99.90;;;;;;5032924;28;20073;-83
2024/02/08 09:49:17;;;;;;;14.53;5.10;;;5.70;99.90;;;;;;5033079;28;20084;-84
2024/02/08 09:51:52;;;;;;;;;;;5.70;99.90;;;;;;5033248;28;20453;-84
2024/02/08 09:54:31;;;;;;;15.57;6.10;;;5.80;99.90;;;;;;5033015;28;19929;-83
2024/02/08 09:57:23;;;;;;;18.80;5.63;;;5.70;99.90;;;;;;5031077;28;20034;-83
2024/02/08 10:00:10;;;;;;;17.30;5.20;;;5.80;99.90;;;;;;5030789;28;20424;-84
2024/02/08 10:02:41;;;;;;;14.37;5.33;;;5.80;99.90;;;;;;5030322;28;20112;-82
2024/02/08 10:05:48;;;;;;;18.03;5.13;;;5.90;99.90;;;;;;5030571;28;20030;-83
2024/02/08 10:08:08;;;;;;;19.03;5.97;;;5.90;99.90;;;;;;5030471;28;20034;-82
2024/02/08 10:11:38;;;;;;;17.97;6.33;;;6.00;99.90;;;;;;5014008;28;20621;-83
2024/02/08 10:13:53;;;;;;;18.50;6.13;;;6.00;99.90;;;;;;5021855;28;20025;-83
2024/02/08 10:16:29;;;;;;;15.87;5.87;;;6.00;99.90;;;;;;5030369;28;20049;-83
2024/02/08 10:19:03;;;;;;;20.30;5.83;;;6.10;99.90;;;;;;5030416;28;20099;-83
2024/02/08 10:21:30;;;;;;;;;;;6.10;99.90;;;;;;5015355;28;20040;-83
2024/02/08 10:23:59;;;;;;;14.73;5.40;;;6.10;99.90;;;;;;5030425;28;19944;-83
2024/02/08 10:26:38;;;;;;;16.77;5.27;;;6.20;99.90;;;;;;5015840;28;20021;-83
2024/02/08 10:29:07;;;;;;;14.83;6.67;;;6.20;99.90;;;;;;5031830;28;20033;-83
2024/02/08 10:31:37;;;;;;;17.13;5.53;;;6.30;99.90;;;;;;5034909;28;20543;-83
2024/02/08 10:34:09;;;;;;;15.70;5.57;;;6.30;99.90;;;;;;5035156;28;20010;-84
2024/02/08 10:36:44;;;;;;;15.30;5.80;;;6.30;99.90;;;;;;5019910;28;20031;-83
2024/02/08 10:39:26;;;;;;;18.37;5.73;;;6.30;99.90;;;;;;5035841;28;20485;-83
2024/02/08 10:41:58;;;;;;;16.40;6.20;;;6.40;99.90;;;;;;5035780;28;20108;-81
2024/02/08 10:44:34;;;;;;;16.47;5.43;;;6.30;99.90;;;;;;5034869;28;20060;-83
2024/02/08 10:47:07;;;;;;;15.87;5.57;;;6.40;99.90;;;;;;5035630;28;20025;-83
2024/02/08 10:49:50;;;;;;;18.80;6.33;;;6.40;99.90;;;;;;5036026;28;20052;-83
2024/02/08 10:52:19;;;;;;;15.53;6.67;;;6.30;99.90;;;;;;5034855;28;20413;-83
2024/02/08 10:54:51;;;;;;;14.47;6.10;;;6.40;99.90;;;;;;5038082;28;20057;-83
2024/02/08 11:00:49;;;;;;;16.60;6.40;;;6.40;99.90;;;;;;5036227;28;20068;-83
2024/02/08 11:02:49;;;;;;;21.27;6.27;;;6.40;99.90;;;;;;5035552;28;20032;-83
2024/02/08 11:05:47;;;;;;;18.70;6.13;;;6.40;99.90;;;;;;5034464;28;20025;-84
2024/02/08 11:08:13;;;;;;;17.23;5.60;;;6.40;99.90;;;;;;5036365;28;20025;-83
2024/02/08 11:10:42;;;;;;;18.13;6.23;;;6.50;99.90;;;;;;5034637;28;20022;-84
2024/02/08 11:13:15;;;;;;;15.87;5.63;;;6.40;99.90;;;;;;5035702;28;20025;-83
2024/02/08 11:15:47;;;;;;;19.50;6.27;;;6.40;99.90;;;;;;5035496;28;20056;-84
2024/02/08 11:18:33;;;;;;;15.60;6.13;;;6.50;99.90;;;;;;5036027;28;20084;-84
2024/02/08 11:21:12;;;;;;;15.80;5.47;;;6.50;99.90;;;;;;5035577;28;20033;-84
2024/02/08 11:23:45;;;;;;;18.00;6.03;;;6.50;99.90;;;;;;5035785;28;20495;-84
2024/02/08 11:26:11;;;;;;;22.73;8.07;;;6.50;99.90;;;;;;5035602;28;20024;-84
2024/02/08 11:28:48;;;;;;;19.30;7.00;;;6.50;99.90;;;;;;5035296;28;20018;-84
2024/02/08 11:31:17;;;;;;;16.50;6.70;;;6.60;99.90;;;;;;5034083;28;20025;-83
2024/02/08 11:33:46;;;;;;;14.97;6.00;;;6.50;99.90;;;;;;5035342;28;20030;-83
2024/02/08 11:36:13;;;;;;;21.83;6.73;;;6.60;99.90;;;;;;5033926;28;20026;-83
2024/02/08 11:38:45;;;;;;;18.27;8.00;;;6.60;99.90;;;;;;5033700;28;20022;-83
2024/02/08 11:41:11;;;;;;;18.00;7.27;;;6.60;99.90;;;;;;5033793;28;20029;-83
2024/02/08 11:44:02;;;;;;;21.50;8.40;;;6.60;99.90;;;;;;5035215;28;20029;-83
2024/02/08 11:46:37;;;;;;;19.10;6.20;;;6.60;99.90;;;;;;5034951;28;20025;-84
2024/02/08 11:49:14;;;;;;;22.03;7.70;;;6.60;99.90;;;;;;5034224;28;20022;-85
2024/02/08 11:51:41;;;;;;;21.70;7.20;;;6.60;99.90;;;;;;5035479;28;20025;-84
2024/02/08 11:54:09;;;;;;;15.83;6.80;;;6.70;99.90;;;;;;5034914;28;20128;-84
2024/02/08 11:56:34;;;;;;;16.33;5.60;;;6.70;99.90;;;;;;5034841;28;20056;-84
2024/02/08 11:59:05;;;;;;;22.47;6.73;;;6.80;99.90;;;;;;5034855;28;20485;-84
2024/02/08 12:01:32;;;;;;;19.83;6.63;;;6.70;99.90;;;;;;5034924;28;20496;-85
2024/02/08 12:03:59;;;;;;;15.20;6.93;;;6.70;99.90;;;;;;5033442;28;20033;-85
2024/02/08 12:06:26;;;;;;;16.77;7.27;;;6.80;99.90;;;;;;5034860;28;20465;-84
2024/02/08 12:09:02;;;;;;;17.00;7.53;;;6.70;99.90;;;;;;5034918;28;20028;-84
2024/02/08 12:11:31;;;;;;;20.10;6.50;;;6.80;99.90;;;;;;5034730;28;20018;-84
2024/02/08 12:14:01;;;;;;;20.67;7.33;;;6.80;99.90;;;;;;5033579;28;20058;-84
2024/02/08 12:16:29;;;;;;;23.30;7.33;;;6.70;99.90;;;;;;5034851;28;20009;-83
2024/02/08 12:19:05;;;;;;;16.23;7.20;;;6.70;99.90;;;;;;5033355;28;20056;-84
2024/02/08 12:21:31;;;;;;;20.43;7.03;;;6.70;99.90;;;;;;5034740;28;20051;-84
2024/02/08 12:23:57;;;;;;;21.53;6.77;;;6.60;99.90;;;;;;5034477;28;20099;-83
2024/02/08 12:26:26;;;;;;;16.87;7.10;;;6.60;99.90;;;;;;5034412;28;20029;-84
2024/02/08 12:28:57;;;;;;;14.73;6.20;;;6.60;99.90;;;;;;5034416;28;20017;-84
2024/02/08 12:31:24;;;;;;;18.33;7.00;;;6.60;99.90;;;;;;5034496;28;20477;-84
2024/02/08 12:33:53;;;;;;;19.47;7.13;;;6.60;99.90;;;;;;5034148;28;20029;-83
2024/02/08 12:36:23;;;;;;;17.43;6.83;;;6.60;99.90;;;;;;5034135;28;20026;-82
2024/02/08 12:38:53;;;;;;;19.67;6.33;;;6.60;99.90;;;;;;5033813;28;20018;-81
2024/02/08 12:41:22;;;;;;;18.50;6.70;;;6.70;99.90;;;;;;5032794;28;20025;-83
2024/02/08 12:43:52;;;;;;;24.87;8.10;;;6.50;99.90;;;;;;5034064;28;20182;-83
2024/02/08 12:46:19;;;;;;;23.73;7.27;;;6.60;99.90;;;;;;5034435;28;20026;-83
2024/02/08 12:48:47;;;;;;;17.30;7.53;;;6.60;99.90;;;;;;5031901;28;20105;-83
2024/02/08 12:51:20;;;;;;;18.13;7.30;;;6.50;99.90;;;;;;5033990;28;20018;-83
2024/02/08 12:53:49;;;;;;;23.17;6.97;;;6.60;99.90;;;;;;5032288;28;20402;-83
2024/02/08 12:56:18;;;;;;;18.20;5.97;;;6.60;99.90;;;;;;5032675;28;20052;-83
2024/02/08 12:58:44;;;;;;;21.23;7.43;;;6.60;99.90;;;;;;5032200;28;20470;-83
2024/02/08 13:01:14;;;;;;;20.63;7.87;;;6.50;99.90;;;;;;5032240;28;20022;-82
2024/02/08 13:03:40;;;;;;;17.27;8.00;;;6.50;99.90;;;;;;5033585;28;20381;-83
2024/02/08 13:06:11;;;;;;;20.83;7.77;;;6.50;99.90;;;;;;5032015;28;20116;-83
2024/02/08 13:08:37;;;;;;;22.87;8.07;;;6.40;99.90;;;;;;5032549;28;20034;-80
2024/02/08 13:11:03;;;;;;;17.87;7.17;;;6.40;99.90;;;;;;5033162;28;20450;-80
2024/02/08 13:13:29;;;;;;;17.17;7.13;;;6.30;99.90;;;;;;5033083;28;20025;-80
2024/02/08 13:16:04;;;;;;;19.87;7.70;;;6.30;99.90;;;;;;5033397;28;20392;-81
2024/02/08 13:18:30;;;;;;;17.33;6.80;;;6.20;99.90;;;;;;5032029;28;20474;-80
2024/02/08 13:21:00;;;;;;;20.07;6.07;;;6.20;99.90;;;;;;5033327;28;20033;-81
2024/02/08 13:23:29;;;;;;;12.83;5.30;;;6.20;99.90;;;;;;5033392;28;20544;-80
2024/02/08 13:25:56;;;;;;;14.10;5.43;;;6.10;99.90;;;;;;5032940;28;20029;-81
2024/02/08 13:28:26;;;;;;;11.97;5.27;;;6.10;99.90;;;;;;5032955;28;20389;-83
2024/02/08 13:30:57;;;;;;;11.50;4.83;;;6.10;99.90;;;;;;5033550;28;20451;-83
2024/02/08 13:33:23;;;;;;;13.73;3.93;;;6.10;99.90;;;;;;5033166;28;20044;-84
2024/02/08 13:35:52;;;;;;;11.10;4.17;;;6.10;99.90;;;;;;5033127;28;20048;-84
2024/02/08 13:38:22;;;;;;;12.97;3.93;;;6.10;99.90;;;;;;5032962;28;20032;-83
2024/02/08 13:40:52;;;;;;;9.30;3.60;;;6.00;99.90;;;;;;5032908;28;20021;-83
2024/02/08 13:43:19;;;;;;;12.60;3.93;;;6.00;99.90;;;;;;5032062;28;20465;-83
2024/02/08 13:45:45;;;;;;;8.80;3.57;;;6.00;99.90;;;;;;5033110;28;20025;-83
2024/02/08 13:48:15;;;;;;;10.90;4.23;;;6.00;99.90;;;;;;5032415;28;20560;-83
2024/02/08 13:50:44;;;;;;;15.47;3.37;;;5.90;99.90;;;;;;5033096;28;20407;-83
2024/02/08 13:53:14;;;;;;;10.93;3.70;;;6.00;99.90;;;;;;5032637;28;20045;-83
2024/02/08 13:55:45;;;;;;;10.53;3.60;;;6.00;99.90;;;;;;5032737;28;20100;-83
2024/02/08 13:58:12;;;;;;;13.47;3.57;;;6.00;99.90;;;;;;5032426;28;20022;-83
2024/02/08 14:00:41;;;;;;;13.03;4.50;;;6.00;99.90;;;;;;5032114;28;20034;-83
2024/02/08 14:03:10;;;;;;;10.43;3.30;;;5.90;99.90;;;;;;5031552;28;20067;-84
2024/02/08 14:05:39;;;;;;;11.33;4.30;;;6.00;99.90;;;;;;5033021;28;20044;-84
2024/02/08 14:08:09;;;;;;;7.03;2.30;;;6.00;99.90;;;;;;5031668;28;20025;-84
2024/02/08 14:10:36;;;;;;;6.20;2.40;;;6.00;99.90;;;;;;5031341;28;20045;-83
2024/02/08 14:13:14;;;;;;;8.80;3.13;;;5.90;99.90;;;;;;5032374;28;20021;-83
2024/02/08 14:15:46;;;;;;;6.27;2.10;;;5.90;99.90;;;;;;5032809;28;20021;-84
2024/02/08 14:18:30;;;;;;;5.03;1.77;;;5.90;99.90;;;;;;5031544;28;20021;-84
2024/02/08 14:20:56;;;;;;;8.43;2.58;;;5.90;99.90;;;;;;5032243;28;20030;-83
2024/02/08 14:23:38;;;;;;;12.67;2.47;;;5.90;99.90;;;;;;5031861;28;20480;-83
2024/02/08 14:28:46;;;;;;;9.73;2.37;;;5.90;99.90;;;;;;5032937;28;20049;-84
2024/02/08 14:31:12;;;;;;;7.03;2.73;;;5.80;99.90;;;;;;5031292;28;20112;-83
2024/02/08 14:33:41;;;;;;;6.77;1.93;;;5.70;99.90;;;;;;5032526;28;20021;-83
2024/02/08 14:36:08;;;;;;;6.13;2.00;;;5.70;99.90;;;;;;5032454;28;20063;-82
2024/02/08 14:38:41;;;;;;;8.40;2.10;;;5.70;99.90;;;;;;5031537;28;20013;-82
2024/02/08 14:41:25;;;;;;;7.53;2.30;;;5.80;99.90;;;;;;5032393;28;20038;-82
2024/02/08 14:43:54;;;;;;;7.55;2.05;;;5.80;99.90;;;;;;5031218;28;20100;-83
2024/02/08 14:46:21;;;;;;;8.87;2.00;;;5.80;99.90;;;;;;5031078;28;20022;-84
2024/02/08 14:48:51;;;;;;;7.30;2.23;;;5.80;99.90;;;;;;5030710;28;20072;-83
2024/02/08 14:53:58;;;;;;;6.63;2.03;;;5.70;99.90;;;;;;5024801;28;20058;-83
2024/02/08 14:56:24;;;;;;;8.33;2.10;;;5.70;99.90;;;;;;5032518;28;20025;-83
2024/02/08 14:58:56;;;;;;;7.77;2.60;;;5.60;99.90;;;;;;5031845;28;20052;-83
2024/02/08 15:01:38;;;;;;;7.27;2.43;;;5.70;99.90;;;;;;5032280;28;20112;-83
2024/02/08 15:04:17;;;;;;;9.43;2.70;;;5.60;99.90;;;;;;5032400;28;20024;-83
2024/02/08 15:07:05;;;;;;;8.13;2.67;;;5.60;99.90;;;;;;5032186;28;20057;-83
2024/02/08 15:14:35;;;;;;;6.30;2.57;;;5.40;99.90;;;;;;5035518;28;20021;-83
2024/02/08 15:17:11;;;;;;;8.03;2.53;;;5.40;99.90;;;;;;5034437;28;20104;-82
2024/02/08 15:19:46;;;;;;;7.87;2.70;;;5.40;99.90;;;;;;5035589;28;20043;-83
2024/02/08 15:22:35;;;;;;;6.93;2.37;;;5.40;99.90;;;;;;5035220;28;20493;-83
2024/02/08 15:25:04;;;;;;;4.97;1.93;;;5.30;99.90;;;;;;5034308;28;20388;-83
2024/02/08 15:27:52;;;;;;;6.77;2.43;;;5.30;99.90;;;;;;5035611;28;20028;-82
2024/02/08 15:30:36;;;;;;;7.80;2.30;;;5.40;99.90;;;;;;5035492;28;20014;-83
2024/02/08 15:33:16;;;;;;;5.88;2.03;;;5.30;99.90;;;;;;5035454;28;20096;-84